Time;durP1;ratioP1;P1;durP2;ratioP2;P2;SDS_P1;SDS_P2;PMS_P1;PMS_P2;Temp;Humidity;BMP_temperature;BMP_pressure;BME280_temperature;BME280_humidity;BME280_pressure;Samples;Min_cycle;Max_cycle;Signal;HPM_P1;HPM_P2
2022/07/23 00:01:27;;;;;;;4.28;3.88;;;;;;;;;;5065827;28;20205;-30
2022/07/23 00:03:54;;;;;;;4.30;3.90;;;;;;;;;;5072087;28;20206;-29
2022/07/23 00:06:23;;;;;;;5.88;4.15;;;;;;;;;;5047224;28;20281;-30
2022/07/23 00:08:50;;;;;;;4.43;4.03;;;;;;;;;;5064488;28;20204;-32
2022/07/23 00:11:18;;;;;;;4.25;3.95;;;;;;;;;;5071664;28;20234;-31
2022/07/23 00:13:45;;;;;;;4.30;4.00;;;;;;;;;;5048465;28;20208;-28
2022/07/23 00:16:12;;;;;;;4.63;3.90;;;;;;;;;;5054268;28;20216;-31
2022/07/23 00:18:40;;;;;;;4.63;4.25;;;;;;;;;;5071048;28;20225;-28
2022/07/23 00:21:07;;;;;;;5.90;3.90;;;;;;;;;;5050647;28;20209;-29
2022/07/23 00:23:35;;;;;;;5.18;3.53;;;;;;;;;;5066781;28;20204;-28
2022/07/23 00:26:02;;;;;;;4.30;3.90;;;;;;;;;;5071469;28;20200;-29
2022/07/23 00:28:29;;;;;;;4.35;3.95;;;;;;;;;;5038342;28;20281;-31
2022/07/23 00:30:56;;;;;;;5.00;4.50;;;;;;;;;;5038243;28;20217;-30
2022/07/23 00:33:24;;;;;;;4.93;4.47;;;;;;;;;;5059049;28;20242;-29
2022/07/23 00:35:51;;;;;;;4.43;4.03;;;;;;;;;;5056642;28;20212;-32
2022/07/23 00:38:18;;;;;;;5.00;4.50;;;;;;;;;;5066368;28;20231;-31
2022/07/23 00:40:46;;;;;;;4.68;4.28;;;;;;;;;;5066268;28;20200;-30
2022/07/23 00:43:13;;;;;;;5.80;4.60;;;;;;;;;;5045857;28;20209;-27
2022/07/23 00:45:41;;;;;;;4.10;3.80;;;;;;;;;;5052714;28;20291;-31
2022/07/23 00:48:08;;;;;;;4.50;4.07;;;;;;;;;;5073011;28;20221;-29
2022/07/23 00:50:35;;;;;;;7.55;4.00;;;;;;;;;;5057738;28;20209;-28
2022/07/23 00:53:02;;;;;;;4.07;3.70;;;;;;;;;;5063080;28;20203;-29
2022/07/23 00:55:29;;;;;;;5.03;3.80;;;;;;;;;;5061366;28;20218;-28
2022/07/23 00:57:58;;;;;;;6.55;4.10;;;;;;;;;;5046702;28;20239;-31
2022/07/23 01:00:25;;;;;;;4.80;4.40;;;;;;;;;;5046982;28;20284;-30
2022/07/23 01:02:53;;;;;;;4.70;4.28;;;;;;;;;;5051909;28;20209;-31
2022/07/23 01:05:21;;;;;;;4.60;4.20;;;;;;;;;;5056174;28;20207;-29
2022/07/23 01:07:49;;;;;;;4.70;4.30;;;;;;;;;;5061862;28;20220;-31
2022/07/23 01:10:32;;;;;;;4.53;4.13;;;;;;;;;;5062644;28;20204;-32
2022/07/23 01:13:00;;;;;;;7.28;3.47;;;;;;;;;;5037959;28;20224;-31
2022/07/23 01:15:27;;;;;;;4.80;4.00;;;;;;;;;;5038669;28;20215;-30
2022/07/23 01:17:55;;;;;;;5.30;4.10;;;;;;;;;;5059252;28;20302;-32
2022/07/23 01:20:22;;;;;;;4.47;4.07;;;;;;;;;;5057694;28;20208;-30
2022/07/23 01:22:50;;;;;;;4.30;3.97;;;;;;;;;;5058031;28;20218;-31
2022/07/23 01:25:17;;;;;;;4.28;3.92;;;;;;;;;;5069603;28;20210;-32
2022/07/23 01:27:45;;;;;;;4.18;3.72;;;;;;;;;;5049012;28;20233;-32
2022/07/23 01:30:12;;;;;;;4.38;3.92;;;;;;;;;;5053511;28;20208;-31
2022/07/23 01:32:39;;;;;;;4.00;3.70;;;;;;;;;;5069789;28;20210;-28
2022/07/23 01:35:07;;;;;;;4.03;3.72;;;;;;;;;;5061562;28;20208;-29
2022/07/23 01:37:35;;;;;;;4.00;3.70;;;;;;;;;;5051426;28;20238;-29
2022/07/23 01:40:03;;;;;;;4.75;4.32;;;;;;;;;;5069355;28;20207;-29
2022/07/23 01:42:31;;;;;;;4.30;3.90;;;;;;;;;;5062994;28;20210;-28
2022/07/23 01:44:58;;;;;;;3.88;3.50;;;;;;;;;;5053233;28;20212;-29
2022/07/23 01:47:25;;;;;;;4.32;3.92;;;;;;;;;;5062310;28;20216;-29
2022/07/23 01:49:52;;;;;;;4.43;4.03;;;;;;;;;;5045449;28;20205;-31
2022/07/23 01:52:19;;;;;;;5.95;3.88;;;;;;;;;;5060000;28;20206;-31
2022/07/23 01:54:46;;;;;;;7.03;4.38;;;;;;;;;;5069155;28;20207;-29
2022/07/23 01:57:15;;;;;;;4.68;4.28;;;;;;;;;;5069848;28;20228;-30
2022/07/23 01:59:42;;;;;;;7.40;4.38;;;;;;;;;;5055878;28;20209;-31
2022/07/23 02:02:09;;;;;;;7.07;4.53;;;;;;;;;;5054544;28;20216;-29
2022/07/23 02:04:36;;;;;;;5.75;4.40;;;;;;;;;;5058570;28;20211;-29
2022/07/23 02:07:05;;;;;;;5.03;4.53;;;;;;;;;;5045398;28;20223;-31
2022/07/23 02:09:32;;;;;;;6.45;4.60;;;;;;;;;;5069450;28;20200;-32
2022/07/23 02:12:00;;;;;;;5.13;4.47;;;;;;;;;;5069927;28;20221;-32
2022/07/23 02:14:28;;;;;;;4.85;4.40;;;;;;;;;;5050064;28;20240;-29
2022/07/23 02:16:55;;;;;;;4.40;3.92;;;;;;;;;;5068792;28;20235;-30
2022/07/23 02:19:23;;;;;;;4.53;4.13;;;;;;;;;;5050280;28;20208;-29
2022/07/23 02:21:50;;;;;;;5.47;4.25;;;;;;;;;;5044377;28;20229;-29
2022/07/23 02:24:17;;;;;;;4.70;4.28;;;;;;;;;;5047381;28;20238;-30
2022/07/23 02:26:46;;;;;;;4.68;4.20;;;;;;;;;;5049993;28;20215;-29
2022/07/23 02:29:13;;;;;;;4.18;3.78;;;;;;;;;;5039646;28;20203;-32
2022/07/23 02:31:41;;;;;;;4.63;4.20;;;;;;;;;;5064164;28;20206;-30
2022/07/23 02:34:11;;;;;;;5.15;4.10;;;;;;;;;;5068976;28;20207;-32
2022/07/23 02:36:41;;;;;;;4.85;4.30;;;;;;;;;;5034457;28;20233;-29
2022/07/23 02:39:08;;;;;;;4.25;3.88;;;;;;;;;;5066413;28;20219;-31
2022/07/23 02:41:36;;;;;;;5.75;4.07;;;;;;;;;;5057048;28;20223;-31
2022/07/23 02:44:03;;;;;;;5.65;4.00;;;;;;;;;;5035732;28;20211;-29
2022/07/23 02:46:30;;;;;;;4.97;4.50;;;;;;;;;;5056098;28;20229;-29
2022/07/23 02:48:59;;;;;;;5.10;4.60;;;;;;;;;;5069511;28;20226;-30
2022/07/23 02:51:26;;;;;;;6.93;4.22;;;;;;;;;;5046057;28;20214;-29
2022/07/23 02:53:53;;;;;;;4.40;4.00;;;;;;;;;;5055478;28;20196;-28
2022/07/23 02:56:20;;;;;;;6.38;4.15;;;;;;;;;;5053282;28;20209;-27
2022/07/23 02:58:47;;;;;;;5.45;4.50;;;;;;;;;;5045633;28;20229;-29
2022/07/23 03:01:14;;;;;;;4.72;4.32;;;;;;;;;;5044221;28;20203;-29
2022/07/23 03:03:41;;;;;;;4.70;4.25;;;;;;;;;;5072890;28;20342;-28
2022/07/23 03:06:10;;;;;;;5.38;4.30;;;;;;;;;;5049759;28;20216;-29
2022/07/23 03:08:37;;;;;;;6.07;4.53;;;;;;;;;;5064109;28;20200;-29
2022/07/23 03:11:10;;;;;;;4.47;4.05;;;;;;;;;;5054542;28;20210;-28
2022/07/23 03:13:38;;;;;;;4.30;3.90;;;;;;;;;;5048221;28;20203;-29
2022/07/23 03:16:05;;;;;;;6.25;4.35;;;;;;;;;;5064489;28;20262;-31
2022/07/23 03:18:32;;;;;;;5.40;4.53;;;;;;;;;;5072189;28;20223;-29
2022/07/23 03:20:59;;;;;;;4.75;4.25;;;;;;;;;;5052402;28;20213;-30
2022/07/23 03:23:28;;;;;;;5.10;4.60;;;;;;;;;;5067539;28;20206;-31
2022/07/23 03:25:55;;;;;;;4.55;4.07;;;;;;;;;;5059117;28;20206;-27
2022/07/23 03:28:22;;;;;;;4.93;4.43;;;;;;;;;;5049822;28;20223;-30
2022/07/23 03:30:50;;;;;;;4.50;4.10;;;;;;;;;;5064193;28;20210;-30
2022/07/23 03:33:17;;;;;;;4.22;3.88;;;;;;;;;;5072427;28;20205;-29
2022/07/23 03:35:45;;;;;;;5.20;4.70;;;;;;;;;;5056166;28;20206;-29
2022/07/23 03:38:12;;;;;;;4.55;4.15;;;;;;;;;;5068958;28;20239;-33
2022/07/23 03:40:40;;;;;;;4.30;3.90;;;;;;;;;;5064126;28;20257;-31
2022/07/23 03:43:08;;;;;;;4.90;4.40;;;;;;;;;;5052134;28;20243;-30
2022/07/23 03:45:35;;;;;;;4.80;4.30;;;;;;;;;;5055328;28;20199;-28
2022/07/23 03:48:02;;;;;;;5.50;4.50;;;;;;;;;;5063264;28;20225;-29
2022/07/23 03:50:29;;;;;;;4.60;4.20;;;;;;;;;;5058424;28;20209;-27
2022/07/23 03:52:56;;;;;;;4.10;3.72;;;;;;;;;;5056138;28;20199;-28
2022/07/23 03:55:23;;;;;;;4.75;4.35;;;;;;;;;;5071227;28;20577;-28
2022/07/23 03:57:52;;;;;;;3.53;3.28;;;;;;;;;;5071978;28;20258;-31
2022/07/23 04:00:19;;;;;;;5.88;4.00;;;;;;;;;;5047777;28;20208;-29
2022/07/23 04:02:46;;;;;;;4.93;4.45;;;;;;;;;;5064062;28;20200;-30
2022/07/23 04:05:13;;;;;;;4.38;3.97;;;;;;;;;;5062103;28;20212;-30
2022/07/23 04:07:41;;;;;;;6.88;3.90;;;;;;;;;;5055520;28;20222;-29
2022/07/23 04:10:08;;;;;;;6.03;4.32;;;;;;;;;;5073657;28;20209;-29
2022/07/23 04:12:36;;;;;;;5.97;4.07;;;;;;;;;;5068212;28;20211;-27
2022/07/23 04:15:04;;;;;;;4.88;4.35;;;;;;;;;;5054781;28;20273;-30
2022/07/23 04:17:31;;;;;;;5.63;4.90;;;;;;;;;;5067005;28;20229;-27
2022/07/23 04:19:59;;;;;;;4.88;4.07;;;;;;;;;;5063475;28;20220;-28
2022/07/23 04:22:26;;;;;;;4.60;4.20;;;;;;;;;;5064514;28;20211;-28
2022/07/23 04:24:53;;;;;;;6.40;4.55;;;;;;;;;;5073221;28;20202;-27
2022/07/23 04:29:46;;;;;;;4.43;4.03;;;;;;;;;;5129373;22;20325;-34
2022/07/23 04:32:15;;;;;;;4.82;4.35;;;;;;;;;;5054163;28;20207;-33
2022/07/23 04:34:42;;;;;;;4.38;3.97;;;;;;;;;;5050404;28;20206;-33
2022/07/23 04:37:09;;;;;;;4.70;4.22;;;;;;;;;;5041978;28;20232;-32
2022/07/23 04:39:36;;;;;;;6.20;4.60;;;;;;;;;;5051345;28;20229;-34
2022/07/23 04:42:03;;;;;;;5.32;3.97;;;;;;;;;;5051348;28;20203;-32
2022/07/23 04:44:30;;;;;;;4.82;4.43;;;;;;;;;;5036647;28;20200;-32
2022/07/23 04:46:57;;;;;;;4.22;3.90;;;;;;;;;;5035218;28;20230;-37
2022/07/23 04:49:26;;;;;;;4.82;4.40;;;;;;;;;;5039526;28;20203;-34
2022/07/23 04:51:53;;;;;;;4.63;4.00;;;;;;;;;;5027479;28;20213;-35
2022/07/23 04:54:20;;;;;;;5.25;4.07;;;;;;;;;;5052445;28;20355;-31
2022/07/23 04:56:48;;;;;;;4.60;3.90;;;;;;;;;;5052410;28;20232;-34
2022/07/23 04:59:15;;;;;;;6.57;4.30;;;;;;;;;;5037339;28;20218;-33
2022/07/23 05:01:42;;;;;;;4.78;4.32;;;;;;;;;;5035605;28;20215;-32
2022/07/23 05:04:10;;;;;;;6.20;4.22;;;;;;;;;;5050434;28;20203;-36
2022/07/23 05:06:38;;;;;;;5.65;4.72;;;;;;;;;;5027431;28;20219;-33
2022/07/23 05:09:05;;;;;;;4.95;4.53;;;;;;;;;;5048496;28;20196;-36
2022/07/23 05:11:32;;;;;;;5.50;4.25;;;;;;;;;;5050545;28;20211;-36
2022/07/23 05:13:59;;;;;;;7.68;4.57;;;;;;;;;;5026081;28;20205;-33
2022/07/23 05:16:26;;;;;;;4.70;4.25;;;;;;;;;;5040195;28;20222;-31
2022/07/23 05:18:56;;;;;;;4.97;4.47;;;;;;;;;;5050183;28;20232;-32
2022/07/23 05:21:23;;;;;;;5.07;4.57;;;;;;;;;;5024961;28;20203;-33
2022/07/23 05:23:51;;;;;;;7.53;4.78;;;;;;;;;;5042669;28;20207;-32
2022/07/23 05:26:18;;;;;;;5.32;4.82;;;;;;;;;;5010949;28;20219;-33
2022/07/23 05:28:45;;;;;;;4.78;4.28;;;;;;;;;;5010637;28;20213;-32
2022/07/23 05:31:13;;;;;;;5.50;4.30;;;;;;;;;;5045711;28;20209;-36
2022/07/23 05:33:40;;;;;;;4.70;4.30;;;;;;;;;;5050414;28;20204;-31
2022/07/23 05:36:07;;;;;;;4.43;4.00;;;;;;;;;;5023669;28;20610;-31
2022/07/23 05:38:34;;;;;;;4.18;3.83;;;;;;;;;;5041850;28;20231;-32
2022/07/23 05:41:03;;;;;;;6.45;4.70;;;;;;;;;;5047944;28;20199;-35
2022/07/23 05:43:31;;;;;;;6.65;4.82;;;;;;;;;;5015487;28;20661;-33
2022/07/23 05:45:58;;;;;;;5.13;4.53;;;;;;;;;;5038875;28;20294;-30
2022/07/23 05:48:25;;;;;;;5.20;4.45;;;;;;;;;;5049617;28;20701;-33
2022/07/23 05:50:52;;;;;;;5.90;4.75;;;;;;;;;;5031936;28;20204;-33
2022/07/23 05:53:19;;;;;;;4.47;4.10;;;;;;;;;;5041738;28;20210;-32
2022/07/23 05:55:47;;;;;;;5.15;4.00;;;;;;;;;;5050430;28;20209;-32
2022/07/23 05:58:15;;;;;;;5.95;4.82;;;;;;;;;;5036736;28;20215;-33
2022/07/23 06:00:42;;;;;;;6.43;4.72;;;;;;;;;;5031517;28;20207;-31
2022/07/23 06:03:12;;;;;;;4.85;4.38;;;;;;;;;;5050452;28;20215;-32
2022/07/23 06:05:40;;;;;;;5.00;4.57;;;;;;;;;;5033925;28;20210;-35
2022/07/23 06:08:09;;;;;;;6.13;4.82;;;;;;;;;;5027641;28;20332;-32
2022/07/23 06:10:36;;;;;;;9.52;4.78;;;;;;;;;;5044446;28;20196;-31
2022/07/23 06:13:03;;;;;;;5.18;4.65;;;;;;;;;;5030145;28;20681;-34
2022/07/23 06:15:32;;;;;;;6.63;4.82;;;;;;;;;;5028872;28;20200;-35
2022/07/23 06:17:59;;;;;;;4.80;4.40;;;;;;;;;;5045099;28;20225;-33
2022/07/23 06:20:26;;;;;;;6.40;4.28;;;;;;;;;;5038132;28;20228;-33
2022/07/23 06:22:53;;;;;;;4.82;4.32;;;;;;;;;;5035258;28;20214;-33
2022/07/23 06:25:20;;;;;;;5.45;4.72;;;;;;;;;;5034507;28;20205;-36
2022/07/23 06:27:47;;;;;;;9.13;5.20;;;;;;;;;;5029190;28;20227;-33
2022/07/23 06:30:17;;;;;;;5.10;4.60;;;;;;;;;;5028726;28;20197;-34
2022/07/23 06:32:45;;;;;;;5.22;4.72;;;;;;;;;;5043768;28;20201;-31
2022/07/23 06:35:12;;;;;;;5.68;4.55;;;;;;;;;;5033658;28;20197;-33
2022/07/23 06:37:40;;;;;;;6.00;4.88;;;;;;;;;;5044319;28;20227;-33
2022/07/23 06:40:07;;;;;;;6.32;5.10;;;;;;;;;;5054099;28;20228;-35
2022/07/23 06:42:36;;;;;;;4.90;4.45;;;;;;;;;;5025579;28;20200;-37
2022/07/23 06:45:03;;;;;;;5.80;5.30;;;;;;;;;;5031711;28;20261;-31
2022/07/23 06:47:31;;;;;;;5.25;4.70;;;;;;;;;;5043514;28;20309;-36
2022/07/23 06:49:59;;;;;;;5.82;5.03;;;;;;;;;;5029557;28;20209;-34
2022/07/23 06:52:26;;;;;;;9.65;4.75;;;;;;;;;;5037643;28;20209;-33
2022/07/23 06:54:54;;;;;;;5.05;4.57;;;;;;;;;;5053551;28;20841;-35
2022/07/23 06:57:21;;;;;;;20.02;18.13;;;;;;;;;;5032092;28;20225;-34
2022/07/23 06:59:48;;;;;;;4.93;4.53;;;;;;;;;;5030138;28;20248;-34
2022/07/23 07:02:15;;;;;;;4.97;4.47;;;;;;;;;;5034640;28;20217;-32
2022/07/23 07:04:42;;;;;;;5.97;4.20;;;;;;;;;;5044086;28;20219;-36
2022/07/23 07:07:11;;;;;;;4.95;4.55;;;;;;;;;;5034329;28;20233;-32
2022/07/23 07:09:38;;;;;;;5.05;4.65;;;;;;;;;;5041437;28;20205;-34
2022/07/23 07:12:06;;;;;;;5.22;4.57;;;;;;;;;;5038728;28;20198;-35
2022/07/23 07:14:33;;;;;;;6.13;5.00;;;;;;;;;;5020602;28;20218;-32
2022/07/23 07:17:00;;;;;;;8.00;5.03;;;;;;;;;;5038606;28;20225;-32
2022/07/23 07:19:27;;;;;;;7.63;5.38;;;;;;;;;;5035660;28;20226;-35
2022/07/23 07:21:54;;;;;;;5.90;4.82;;;;;;;;;;5029560;28;20213;-36
2022/07/23 07:24:23;;;;;;;5.10;4.60;;;;;;;;;;5037712;28;20675;-35
2022/07/23 07:26:50;;;;;;;7.68;5.63;;;;;;;;;;5029660;28;20233;-33
2022/07/23 07:29:17;;;;;;;4.93;4.43;;;;;;;;;;5021084;28;20210;-34
2022/07/23 07:31:44;;;;;;;5.55;4.88;;;;;;;;;;5043873;28;20201;-31
2022/07/23 07:34:11;;;;;;;6.40;4.78;;;;;;;;;;5051833;28;20224;-34
2022/07/23 07:36:39;;;;;;;5.28;4.82;;;;;;;;;;5029186;28;20229;-34
2022/07/23 07:39:06;;;;;;;5.30;4.80;;;;;;;;;;5049505;28;20228;-31
2022/07/23 07:41:35;;;;;;;6.22;5.20;;;;;;;;;;5041670;28;20285;-36
2022/07/23 07:44:02;;;;;;;6.60;4.50;;;;;;;;;;5024676;28;20213;-31
2022/07/23 07:46:30;;;;;;;5.50;4.95;;;;;;;;;;5051899;28;20228;-33
2022/07/23 07:48:57;;;;;;;5.10;4.60;;;;;;;;;;5055411;28;20255;-34
2022/07/23 07:51:24;;;;;;;5.22;4.45;;;;;;;;;;5034766;28;20212;-34
2022/07/23 07:53:51;;;;;;;4.65;4.13;;;;;;;;;;5048278;28;20197;-36
2022/07/23 07:56:19;;;;;;;9.82;3.90;;;;;;;;;;5045565;28;20198;-34
2022/07/23 07:58:47;;;;;;;7.25;4.47;;;;;;;;;;5013978;28;20203;-31
2022/07/23 08:01:14;;;;;;;4.20;3.80;;;;;;;;;;5032793;28;20577;-33
2022/07/23 08:03:42;;;;;;;4.22;3.83;;;;;;;;;;5029082;28;20217;-32
2022/07/23 08:06:09;;;;;;;6.38;4.68;;;;;;;;;;5025492;28;20218;-37
2022/07/23 08:08:36;;;;;;;5.20;4.70;;;;;;;;;;5027669;28;20207;-32
2022/07/23 08:11:03;;;;;;;4.50;3.63;;;;;;;;;;5049455;28;20198;-32
2022/07/23 08:13:30;;;;;;;6.00;4.53;;;;;;;;;;5046752;28;20206;-37
2022/07/23 08:15:58;;;;;;;4.93;4.32;;;;;;;;;;5024583;28;20211;-34
2022/07/23 08:18:25;;;;;;;5.57;4.68;;;;;;;;;;5046748;28;20198;-35
2022/07/23 08:20:53;;;;;;;4.18;3.75;;;;;;;;;;5035069;28;20226;-36
2022/07/23 08:23:20;;;;;;;4.50;4.10;;;;;;;;;;5046734;28;20198;-34
2022/07/23 08:25:47;;;;;;;5.65;4.35;;;;;;;;;;5029151;28;20206;-31
2022/07/23 08:28:15;;;;;;;4.35;3.95;;;;;;;;;;5029571;28;20317;-34
2022/07/23 08:30:43;;;;;;;4.10;3.80;;;;;;;;;;5024434;28;20738;-36
2022/07/23 08:33:13;;;;;;;11.52;5.43;;;;;;;;;;5043413;28;20205;-32
2022/07/23 08:35:41;;;;;;;4.00;3.70;;;;;;;;;;5035856;28;20248;-31
2022/07/23 08:38:10;;;;;;;4.50;4.10;;;;;;;;;;5044886;28;20308;-35
2022/07/23 08:40:38;;;;;;;4.57;4.13;;;;;;;;;;5050682;28;20221;-33
2022/07/23 08:43:06;;;;;;;5.90;4.35;;;;;;;;;;5038446;28;20285;-34
2022/07/23 08:45:36;;;;;;;5.35;4.30;;;;;;;;;;5023592;28;20666;-35
2022/07/23 08:48:04;;;;;;;4.13;3.83;;;;;;;;;;5048672;28;20221;-32
2022/07/23 08:50:34;;;;;;;5.50;4.60;;;;;;;;;;5039121;28;20202;-36
2022/07/23 08:53:02;;;;;;;7.20;4.95;;;;;;;;;;5043547;28;20205;-32
2022/07/23 08:55:30;;;;;;;6.45;4.63;;;;;;;;;;5050361;28;20202;-37
2022/07/23 08:57:57;;;;;;;4.88;4.47;;;;;;;;;;5045410;28;20226;-32
2022/07/23 09:00:24;;;;;;;5.22;4.43;;;;;;;;;;5030873;28;20701;-35
2022/07/23 09:02:51;;;;;;;6.40;4.15;;;;;;;;;;5053472;28;20204;-35
2022/07/23 09:05:19;;;;;;;6.05;4.00;;;;;;;;;;5044638;28;20210;-33
2022/07/23 09:08:04;;;;;;;5.38;4.88;;;;;;;;;;5037588;28;20722;-36
2022/07/23 09:10:43;;;;;;;4.80;4.30;;;;;;;;;;5054222;28;20204;-34
2022/07/23 09:13:24;;;;;;;5.25;4.40;;;;;;;;;;5037233;28;20205;-34
2022/07/23 09:15:51;;;;;;;4.65;4.25;;;;;;;;;;5034311;28;20204;-33
2022/07/23 09:18:18;;;;;;;4.60;4.18;;;;;;;;;;5049725;28;20233;-33
2022/07/23 09:20:45;;;;;;;5.22;4.50;;;;;;;;;;5034437;28;20229;-35
2022/07/23 09:23:12;;;;;;;4.63;4.18;;;;;;;;;;5045303;28;20205;-31
2022/07/23 09:25:41;;;;;;;5.10;4.60;;;;;;;;;;5049925;28;20208;-33
2022/07/23 09:28:08;;;;;;;6.88;4.68;;;;;;;;;;5040073;28;20230;-36
2022/07/23 09:30:35;;;;;;;4.75;4.00;;;;;;;;;;5032879;28;20206;-34
2022/07/23 09:33:07;;;;;;;5.05;4.40;;;;;;;;;;5047051;28;20202;-36
2022/07/23 09:35:47;;;;;;;5.18;4.65;;;;;;;;;;5034168;28;20202;-34
2022/07/23 09:38:14;;;;;;;4.72;4.30;;;;;;;;;;5040896;28;20221;-32
2022/07/23 09:40:43;;;;;;;4.40;4.10;;;;;;;;;;5050071;28;20217;-33
2022/07/23 09:43:10;;;;;;;5.00;4.38;;;;;;;;;;5033518;28;20218;-32
2022/07/23 09:45:39;;;;;;;4.53;4.18;;;;;;;;;;5027360;28;20209;-35
2022/07/23 09:48:13;;;;;;;4.57;4.18;;;;;;;;;;5047830;28;20294;-34
2022/07/23 09:50:40;;;;;;;4.43;4.10;;;;;;;;;;5035718;28;20255;-34
2022/07/23 09:53:07;;;;;;;6.28;4.30;;;;;;;;;;5040462;28;20232;-34
2022/07/23 09:55:36;;;;;;;6.30;4.55;;;;;;;;;;5047890;28;20215;-34
2022/07/23 09:58:05;;;;;;;5.22;4.68;;;;;;;;;;5027117;28;20222;-36
2022/07/23 10:00:33;;;;;;;4.85;4.35;;;;;;;;;;5039607;28;20221;-34
2022/07/23 10:03:01;;;;;;;5.35;4.78;;;;;;;;;;5054342;28;20205;-34
2022/07/23 10:05:28;;;;;;;4.53;4.13;;;;;;;;;;5047308;28;20206;-34
2022/07/23 10:07:56;;;;;;;5.88;4.63;;;;;;;;;;5050561;28;20695;-33
2022/07/23 10:10:24;;;;;;;5.45;4.95;;;;;;;;;;5048599;28;20202;-36
2022/07/23 10:15:37;;;;;;;4.82;4.43;;;;;;;;;;5030502;28;20212;-31
2022/07/23 10:18:04;;;;;;;5.20;4.70;;;;;;;;;;5039380;28;20241;-32
2022/07/23 10:20:31;;;;;;;5.05;4.65;;;;;;;;;;5044408;28;20228;-35
2022/07/23 10:23:02;;;;;;;5.53;4.90;;;;;;;;;;5035962;28;20198;-34
2022/07/23 10:25:34;;;;;;;4.90;4.50;;;;;;;;;;5041170;28;20190;-33
2022/07/23 10:28:08;;;;;;;5.30;4.80;;;;;;;;;;5026824;28;20230;-34
2022/07/23 10:30:42;;;;;;;8.35;5.43;;;;;;;;;;5164357;22;20231;-35
2022/07/23 10:33:27;;;;;;;5.20;4.70;;;;;;;;;;5084898;28;20204;-36
2022/07/23 10:35:57;;;;;;;4.95;4.43;;;;;;;;;;5074437;28;20205;-34
2022/07/23 10:38:26;;;;;;;5.45;4.97;;;;;;;;;;5086637;28;20224;-38
2022/07/23 10:40:57;;;;;;;7.85;5.25;;;;;;;;;;5098918;28;20220;-38
2022/07/23 10:43:24;;;;;;;5.13;4.50;;;;;;;;;;5098228;28;20197;-37
2022/07/23 10:45:53;;;;;;;5.28;4.55;;;;;;;;;;5079124;28;20201;-33
2022/07/23 10:48:21;;;;;;;6.25;5.65;;;;;;;;;;5076265;28;20312;-38
2022/07/23 10:51:03;;;;;;;24.77;13.23;;;;;;;;;;5065668;28;20204;-39
2022/07/23 10:53:30;;;;;;;9.82;6.60;;;;;;;;;;5084661;28;20197;-39
2022/07/23 10:55:59;;;;;;;4.97;4.50;;;;;;;;;;5090873;28;20201;-33
2022/07/23 10:58:42;;;;;;;7.43;5.85;;;;;;;;;;5058246;28;20225;-42
2022/07/23 11:01:24;;;;;;;10.68;7.63;;;;;;;;;;5072460;28;20221;-38
2022/07/23 11:03:59;;;;;;;5.40;4.90;;;;;;;;;;5089080;28;20456;-38
2022/07/23 11:06:46;;;;;;;5.63;5.10;;;;;;;;;;5075246;28;20228;-39
2022/07/23 11:09:26;;;;;;;7.22;5.70;;;;;;;;;;5096791;28;20210;-39
2022/07/23 11:12:08;;;;;;;6.55;5.32;;;;;;;;;;5098549;28;20204;-35
2022/07/23 11:14:49;;;;;;;4.75;4.35;;;;;;;;;;5075865;28;20206;-34
2022/07/23 11:17:21;;;;;;;4.95;4.43;;;;;;;;;;5076458;28;20227;-41
2022/07/23 11:20:03;;;;;;;4.88;4.47;;;;;;;;;;5082249;28;20197;-38
2022/07/23 11:22:36;;;;;;;5.32;4.82;;;;;;;;;;5072697;28;20215;-42
2022/07/23 11:25:04;;;;;;;4.72;4.32;;;;;;;;;;5094708;28;20196;-43
2022/07/23 11:27:38;;;;;;;4.82;4.30;;;;;;;;;;5088076;28;20228;-34
2022/07/23 11:30:05;;;;;;;5.57;4.82;;;;;;;;;;5078406;28;20662;-37
2022/07/23 11:32:35;;;;;;;5.15;4.15;;;;;;;;;;5094376;28;20287;-41
2022/07/23 11:35:02;;;;;;;5.03;4.53;;;;;;;;;;5068143;28;20224;-37
2022/07/23 11:37:32;;;;;;;4.50;4.10;;;;;;;;;;5067601;28;20222;-39
2022/07/23 11:40:01;;;;;;;4.50;4.10;;;;;;;;;;5078586;28;20208;-38
2022/07/23 11:42:28;;;;;;;4.68;4.10;;;;;;;;;;5096198;28;20207;-36
2022/07/23 11:44:55;;;;;;;5.25;4.75;;;;;;;;;;5096054;28;20211;-37
2022/07/23 11:47:24;;;;;;;4.35;4.05;;;;;;;;;;5081546;28;20228;-37
2022/07/23 11:49:55;;;;;;;7.97;4.68;;;;;;;;;;5064994;28;20220;-33
2022/07/23 11:52:23;;;;;;;5.00;4.43;;;;;;;;;;5071618;28;20213;-34
2022/07/23 11:54:51;;;;;;;4.50;4.10;;;;;;;;;;5080236;28;20202;-37
2022/07/23 11:57:20;;;;;;;4.75;4.10;;;;;;;;;;5054197;28;20237;-36
2022/07/23 11:59:48;;;;;;;5.03;4.53;;;;;;;;;;5056601;28;20206;-34
2022/07/23 12:02:15;;;;;;;6.35;4.82;;;;;;;;;;5079484;28;20220;-38
2022/07/23 12:04:43;;;;;;;4.75;4.35;;;;;;;;;;5079481;28;20213;-36
2022/07/23 12:07:27;;;;;;;4.85;4.45;;;;;;;;;;5074372;28;20226;-36
2022/07/23 12:09:54;;;;;;;4.72;3.97;;;;;;;;;;5093902;28;20200;-34
2022/07/23 12:12:23;;;;;;;4.13;3.80;;;;;;;;;;5080714;28;20201;-41
2022/07/23 12:14:51;;;;;;;4.30;3.90;;;;;;;;;;5070559;28;20201;-34
2022/07/23 12:17:18;;;;;;;4.50;4.10;;;;;;;;;;5087048;28;20220;-35
2022/07/23 12:19:45;;;;;;;4.07;3.78;;;;;;;;;;5084096;28;20217;-39
2022/07/23 12:22:14;;;;;;;5.15;4.30;;;;;;;;;;5079966;28;20217;-33
2022/07/23 12:25:00;;;;;;;4.40;4.10;;;;;;;;;;5082537;28;20362;-40
2022/07/23 12:27:29;;;;;;;5.35;4.45;;;;;;;;;;5092792;28;20231;-38
2022/07/23 12:29:56;;;;;;;4.38;4.05;;;;;;;;;;5076967;28;20208;-35
2022/07/23 12:32:24;;;;;;;5.18;4.68;;;;;;;;;;5092396;28;20196;-39
2022/07/23 12:34:52;;;;;;;4.43;4.03;;;;;;;;;;5082653;28;20202;-35
2022/07/23 12:37:27;;;;;;;4.30;3.90;;;;;;;;;;5074627;28;20225;-35
2022/07/23 12:39:54;;;;;;;4.80;4.10;;;;;;;;;;5084606;28;20204;-35
2022/07/23 12:42:21;;;;;;;4.82;4.40;;;;;;;;;;5073264;28;20229;-35
2022/07/23 12:45:11;;;;;;;4.43;4.03;;;;;;;;;;5065576;28;20255;-35
2022/07/23 12:47:59;;;;;;;5.55;4.55;;;;;;;;;;5083479;28;21222;-38
2022/07/23 12:50:36;;;;;;;4.60;4.18;;;;;;;;;;5063223;28;20204;-35
2022/07/23 12:53:05;;;;;;;5.13;4.20;;;;;;;;;;5078308;28;20204;-35
2022/07/23 12:55:32;;;;;;;4.47;4.07;;;;;;;;;;5080082;28;20215;-39
2022/07/23 12:58:05;;;;;;;4.85;4.38;;;;;;;;;;5071673;28;20232;-36
2022/07/23 13:00:33;;;;;;;4.57;4.18;;;;;;;;;;5065300;28;20201;-39
2022/07/23 13:03:01;;;;;;;5.72;4.32;;;;;;;;;;5090781;28;20211;-36
2022/07/23 13:05:28;;;;;;;4.85;4.45;;;;;;;;;;5073486;28;20208;-34
2022/07/23 13:07:55;;;;;;;5.10;4.15;;;;;;;;;;5078941;28;20229;-36
2022/07/23 13:10:22;;;;;;;4.50;4.10;;;;;;;;;;5075508;28;20208;-42
2022/07/23 13:12:49;;;;;;;4.43;4.13;;;;;;;;;;5073126;28;20255;-35
2022/07/23 13:15:29;;;;;;;4.43;4.10;;;;;;;;;;5071490;28;20204;-38
2022/07/23 13:17:58;;;;;;;5.85;4.05;;;;;;;;;;5083167;28;20230;-39
2022/07/23 13:20:25;;;;;;;4.25;3.95;;;;;;;;;;5079983;28;20295;-39
2022/07/23 13:22:52;;;;;;;4.85;4.45;;;;;;;;;;5073902;28;20228;-41
2022/07/23 13:25:20;;;;;;;4.93;4.53;;;;;;;;;;5093159;28;20205;-33
2022/07/23 13:27:47;;;;;;;5.97;4.40;;;;;;;;;;5089697;28;20225;-43
2022/07/23 13:30:14;;;;;;;4.20;3.80;;;;;;;;;;5067453;28;20208;-35
2022/07/23 13:32:42;;;;;;;4.70;4.30;;;;;;;;;;5074775;28;20200;-39
2022/07/23 13:35:11;;;;;;;4.63;4.22;;;;;;;;;;5082196;28;20206;-32
2022/07/23 13:37:39;;;;;;;5.45;4.60;;;;;;;;;;5078778;28;20221;-36
2022/07/23 13:40:07;;;;;;;4.50;4.10;;;;;;;;;;5092928;28;20200;-42
2022/07/23 13:42:34;;;;;;;4.97;4.50;;;;;;;;;;5078353;28;20221;-39
2022/07/23 13:45:01;;;;;;;5.45;4.95;;;;;;;;;;5067333;28;20209;-37
2022/07/23 13:47:28;;;;;;;6.00;4.65;;;;;;;;;;5078954;28;20219;-36
2022/07/23 13:49:55;;;;;;;4.80;4.40;;;;;;;;;;5081084;28;20202;-38
2022/07/23 13:52:23;;;;;;;4.97;4.47;;;;;;;;;;5075263;28;20200;-40
2022/07/23 13:54:51;;;;;;;4.72;4.25;;;;;;;;;;5091970;28;20199;-37
2022/07/23 13:57:18;;;;;;;4.53;4.13;;;;;;;;;;5078542;28;20228;-36
2022/07/23 13:59:45;;;;;;;4.20;3.90;;;;;;;;;;5060525;28;20205;-40
2022/07/23 14:02:15;;;;;;;5.30;4.72;;;;;;;;;;5068564;28;20689;-36
2022/07/23 14:04:43;;;;;;;5.22;4.30;;;;;;;;;;5070725;28;20216;-40
2022/07/23 14:07:11;;;;;;;4.68;4.28;;;;;;;;;;5073109;28;20703;-39
2022/07/23 14:09:39;;;;;;;5.00;4.50;;;;;;;;;;5091530;28;20206;-35
2022/07/23 14:12:07;;;;;;;5.07;4.32;;;;;;;;;;5080031;28;20201;-32
2022/07/23 14:14:44;;;;;;;4.97;4.57;;;;;;;;;;5066319;28;20207;-31
2022/07/23 14:17:11;;;;;;;5.07;4.60;;;;;;;;;;5073606;28;21901;-39
2022/07/23 14:19:38;;;;;;;4.85;4.45;;;;;;;;;;5076079;28;20212;-38
2022/07/23 14:22:05;;;;;;;5.20;4.75;;;;;;;;;;5064910;28;20221;-34
2022/07/23 14:24:33;;;;;;;4.82;4.40;;;;;;;;;;5083044;28;20211;-37
2022/07/23 14:27:02;;;;;;;4.72;4.30;;;;;;;;;;5085100;28;20221;-41
2022/07/23 14:29:30;;;;;;;5.03;4.63;;;;;;;;;;5070156;28;20213;-38
2022/07/23 14:31:57;;;;;;;5.18;4.68;;;;;;;;;;5085737;28;20199;-34
2022/07/23 14:34:24;;;;;;;7.07;5.10;;;;;;;;;;5090110;28;20566;-40
2022/07/23 14:36:52;;;;;;;5.22;4.43;;;;;;;;;;5073372;28;20312;-36
2022/07/23 14:39:19;;;;;;;6.45;4.90;;;;;;;;;;5092026;28;20192;-36
2022/07/23 14:41:46;;;;;;;5.20;4.70;;;;;;;;;;5080834;28;20229;-39
2022/07/23 14:44:15;;;;;;;4.55;4.22;;;;;;;;;;5058783;28;20204;-36
2022/07/23 14:46:42;;;;;;;5.65;5.07;;;;;;;;;;5082170;28;20221;-36
2022/07/23 14:49:09;;;;;;;5.50;5.00;;;;;;;;;;5092607;28;20204;-39
2022/07/23 14:51:36;;;;;;;6.07;4.72;;;;;;;;;;5067488;28;20203;-37
2022/07/23 14:54:04;;;;;;;5.07;4.68;;;;;;;;;;5080613;28;20201;-35
2022/07/23 14:56:33;;;;;;;5.75;5.05;;;;;;;;;;5078082;28;20224;-40